Terminal Aerodrome Forecast
Issued by NWS

Home | Current Version | Previous Version | Text Only | Print | Product List | Glossary On
Versions: 1 2 3 4 5 6 7 8 9 10 11 12 13 14 15
000
FTUS45 KLKN 281724
TAFTPH
TAF
KTPH 281724Z 2818/2918 33022G32KT P6SM FEW035 SCT070
     FM282000 35030G40KT P6SM VCSH SCT030 BKN060
     FM290300 35015G25KT P6SM SCT045 BKN070
     FM290500 34012G22KT P6SM SCT050 BKN070
     FM290800 36011KT P6SM SCT060 BKN100
     FM291600 33012G22KT P6SM SCT060 SCT100=

USA.gov is the U.S. government's official web portal to all federal, state and local government web resources and services.